Terminal Aerodrome Forecast
Issued by NWS Louisville, KY

Home | Current Version | Previous Version | Text Only | Print | Product List | Glossary On
Versions: 1 2 3 4 5 6 7 8 9 10 11 12 13 14 15 16 17 18 19
000
FTUS43 KLMK 010500
TAFLEX
TAF
KLEX 010520Z 0106/0206 31009KT 6SM -SN BR BKN006 OVC012
     FM011000 34012G20KT P6SM OVC012
     FM011500 34012G20KT P6SM OVC027
     FM012100 36010KT P6SM SCT030=

USA.gov is the U.S. government's official web portal to all federal, state and local government web resources and services.